Swampscott, Massachusetts
Current Conditions -  °F | °C
As of 10:53 PM on Friday 28 Nov 2014 (Local Time) from KBVY Reporting Station
Clear Clear  
Wind Chill: 16°   Ceiling: Unl
Heat Index: 23°   Visibility: 10mi
Dew Point: 14°   Wind: 6mph
Humidity: 68%   Direction: 280°W
Pressure: 30.19"   Gusts: NA
Location:  42.47°N, 70.92°W
Report Text: KBVY 290353Z AUTO 28005KT 10SM CLR M05/M10 A3019 RMK AO2 SLP222 T10501100
Loading
Personal Weather Stations






























Interactive Weather Map New forecast layout! Learn more

10-Day Weather Forecast

Advertisements
Track Severe Weather on mobile